createdAt,value
2018-07-08T00:01:25.239Z,91.07
2018-07-08T00:03:53.904Z,90.48
2018-07-08T00:06:22.572Z,90.60
2018-07-08T00:08:51.329Z,91.02
2018-07-08T00:11:19.998Z,90.26
2018-07-08T00:13:48.748Z,91.15
2018-07-08T00:16:17.455Z,91.18
2018-07-08T00:18:46.504Z,90.87
2018-07-08T00:21:15.201Z,91.32
2018-07-08T00:23:43.854Z,90.60
2018-07-08T00:26:12.632Z,91.15
2018-07-08T00:28:41.339Z,91.18
2018-07-08T00:31:10.073Z,91.24
2018-07-08T00:33:38.727Z,89.91
2018-07-08T00:36:07.430Z,89.75
2018-07-08T00:38:36.139Z,90.13
2018-07-08T00:41:04.820Z,89.31
2018-07-08T00:43:33.451Z,89.33
2018-07-08T00:46:02.134Z,90.03
2018-07-08T00:48:30.748Z,89.29
2018-07-08T00:50:59.375Z,90.27
2018-07-08T00:53:28.031Z,89.87
2018-07-08T00:55:56.708Z,90.07
2018-07-08T00:58:25.435Z,89.16
2018-07-08T01:00:54.160Z,88.82
2018-07-08T01:03:23.180Z,89.07
2018-07-08T01:05:51.865Z,89.08
2018-07-08T01:08:20.507Z,88.94
2018-07-08T01:10:49.229Z,89.02
2018-07-08T01:13:17.946Z,89.67
2018-07-08T01:15:46.612Z,88.99
2018-07-08T01:18:15.324Z,89.69
2018-07-08T01:20:44.049Z,89.64
2018-07-08T01:23:12.789Z,90.11
2018-07-08T01:25:52.535Z,89.63
2018-07-08T01:28:21.240Z,90.10
2018-07-08T01:30:49.976Z,90.59
2018-07-08T01:33:18.703Z,90.12
2018-07-08T01:35:47.381Z,90.14
2018-07-08T01:38:16.024Z,90.21
2018-07-08T01:40:44.678Z,89.93
2018-07-08T01:43:13.415Z,89.70
2018-07-08T01:45:42.053Z,90.36
2018-07-08T01:48:10.779Z,89.95
2018-07-08T01:50:39.490Z,89.28
2018-07-08T01:53:08.193Z,89.79
2018-07-08T01:55:36.900Z,89.51
2018-07-08T01:58:05.643Z,89.54
2018-07-08T02:00:34.453Z,88.79
2018-07-08T02:03:03.153Z,89.61
2018-07-08T02:05:31.878Z,88.73
2018-07-08T02:08:00.885Z,88.42
2018-07-08T02:10:29.510Z,88.31
2018-07-08T02:12:58.583Z,89.02
2018-07-08T02:15:27.287Z,88.90
2018-07-08T02:17:56.007Z,88.49
2018-07-08T02:20:24.708Z,88.92
2018-07-08T02:22:53.392Z,88.77
2018-07-08T02:25:22.107Z,88.75
2018-07-08T02:27:51.300Z,88.98
2018-07-08T02:30:19.970Z,88.94
2018-07-08T02:32:48.688Z,89.41
2018-07-08T02:35:17.476Z,89.34
2018-07-08T02:37:46.218Z,89.23
2018-07-08T02:40:14.851Z,88.89
2018-07-08T02:42:43.612Z,88.42
2018-07-08T02:45:12.269Z,88.90
2018-07-08T02:47:41.019Z,89.53
2018-07-08T02:50:09.675Z,89.36
2018-07-08T02:52:38.449Z,89.21
2018-07-08T02:55:07.180Z,88.64
2018-07-08T02:57:35.816Z,89.16
2018-07-08T03:00:05.855Z,88.83
2018-07-08T03:02:34.549Z,88.76
2018-07-08T03:05:03.275Z,88.50
2018-07-08T03:07:31.939Z,87.85
2018-07-08T03:10:00.672Z,87.92
2018-07-08T03:12:29.422Z,88.10
2018-07-08T03:14:58.102Z,88.00
2018-07-08T03:17:26.743Z,88.43
2018-07-08T03:19:55.432Z,88.05
2018-07-08T03:22:24.061Z,87.22
2018-07-08T03:24:52.669Z,87.59
2018-07-08T03:27:21.322Z,87.31
2018-07-08T03:29:49.953Z,88.10
2018-07-08T03:32:18.602Z,87.46
2018-07-08T03:34:47.256Z,87.66
2018-07-08T03:37:15.910Z,87.99
2018-07-08T03:39:44.560Z,87.35
2018-07-08T03:42:13.189Z,87.01
2018-07-08T03:44:41.846Z,86.48
2018-07-08T03:47:10.479Z,87.17
2018-07-08T03:49:39.096Z,87.32
2018-07-08T03:52:07.766Z,86.95
2018-07-08T03:54:36.447Z,86.61
2018-07-08T03:57:05.123Z,85.99
2018-07-08T03:59:33.740Z,85.83
2018-07-08T04:02:02.398Z,85.70
2018-07-08T04:04:31.142Z,85.56
2018-07-08T04:06:59.828Z,84.93
2018-07-08T04:09:28.495Z,85.14
2018-07-08T04:11:57.159Z,84.96
2018-07-08T04:14:25.770Z,84.41
2018-07-08T04:16:54.495Z,84.75
2018-07-08T04:19:23.150Z,84.11
2018-07-08T04:21:51.803Z,84.05
2018-07-08T04:24:20.436Z,83.79
2018-07-08T04:26:49.082Z,83.53
2018-07-08T04:29:17.694Z,82.44
2018-07-08T04:31:46.441Z,81.67
2018-07-08T04:34:15.102Z,81.80
2018-07-08T04:36:43.771Z,81.15
2018-07-08T04:39:12.419Z,81.72
2018-07-08T04:41:41.088Z,82.17
2018-07-08T04:44:09.853Z,81.57
2018-07-08T04:46:38.527Z,81.51
2018-07-08T04:49:07.190Z,82.00
2018-07-08T04:51:35.867Z,81.33
2018-07-08T04:54:04.527Z,81.78
2018-07-08T04:56:33.176Z,81.48
2018-07-08T04:59:01.860Z,80.88
2018-07-08T05:01:30.530Z,80.90
2018-07-08T05:03:59.165Z,81.14
2018-07-08T05:06:27.865Z,81.35
2018-07-08T05:08:56.504Z,80.39
2018-07-08T05:11:25.220Z,80.31
2018-07-08T05:13:53.915Z,80.42
2018-07-08T05:16:22.547Z,80.19
2018-07-08T05:18:51.208Z,80.38
2018-07-08T05:21:19.850Z,81.00
2018-07-08T05:23:48.500Z,81.26
2018-07-08T05:26:17.132Z,81.51
2018-07-08T05:28:45.791Z,81.90
2018-07-08T05:31:14.466Z,81.57
2018-07-08T05:33:43.112Z,81.81
2018-07-08T05:36:11.784Z,82.42
2018-07-08T05:38:40.468Z,81.95
2018-07-08T05:41:09.106Z,82.66
2018-07-08T05:43:37.820Z,82.24
2018-07-08T05:46:06.510Z,82.80
2018-07-08T05:48:35.177Z,82.06
2018-07-08T05:51:03.810Z,82.65
2018-07-08T05:53:32.447Z,81.66
2018-07-08T05:56:01.143Z,81.79
2018-07-08T05:58:29.803Z,80.87
2018-07-08T06:00:58.466Z,80.98
2018-07-08T06:03:27.131Z,81.44
2018-07-08T06:05:55.782Z,80.80
2018-07-08T06:08:24.498Z,80.22
2018-07-08T06:10:53.220Z,79.42
2018-07-08T06:13:21.911Z,78.19
2018-07-08T06:15:50.586Z,77.26
2018-07-08T06:18:19.239Z,78.15
2018-07-08T06:20:47.903Z,78.04
2018-07-08T06:23:16.611Z,78.65
2018-07-08T06:25:45.299Z,78.23
2018-07-08T06:28:14.047Z,78.21
2018-07-08T06:30:42.749Z,78.71
2018-07-08T06:33:11.399Z,78.25
2018-07-08T06:35:40.147Z,78.07
2018-07-08T06:38:08.796Z,78.08
2018-07-08T06:40:37.462Z,76.98
2018-07-08T06:43:06.134Z,77.93
2018-07-08T06:45:34.848Z,77.23
2018-07-08T06:48:03.511Z,77.05
2018-07-08T06:50:32.135Z,77.70
2018-07-08T06:53:00.828Z,77.40
2018-07-08T06:55:29.543Z,77.93
2018-07-08T06:57:58.201Z,77.75
2018-07-08T07:00:26.932Z,78.08
2018-07-08T07:02:55.553Z,77.57
2018-07-08T07:05:24.190Z,77.67
2018-07-08T07:07:52.840Z,78.14
2018-07-08T07:10:21.476Z,78.19
2018-07-08T07:12:50.123Z,78.20
2018-07-08T07:15:18.811Z,78.64
2018-07-08T07:17:47.510Z,78.58
2018-07-08T07:20:16.192Z,78.25
2018-07-08T07:22:44.873Z,78.47
2018-07-08T07:25:13.539Z,78.43
2018-07-08T07:27:42.306Z,78.79
2018-07-08T07:30:11.140Z,77.41
2018-07-08T07:32:39.807Z,76.76
2018-07-08T07:35:08.469Z,75.60
2018-07-08T07:37:37.212Z,73.76
2018-07-08T07:40:06.096Z,74.09
2018-07-08T07:42:35.125Z,73.65
2018-07-08T07:45:03.927Z,72.32
2018-07-08T07:47:32.635Z,68.85
2018-07-08T07:50:01.312Z,70.35
2018-07-08T07:52:29.953Z,70.38
2018-07-08T07:54:58.637Z,70.08
2018-07-08T07:57:27.311Z,70.66
2018-07-08T07:59:55.943Z,70.98
2018-07-08T08:02:24.675Z,71.42
2018-07-08T08:04:53.370Z,71.80
2018-07-08T08:07:22.063Z,71.29
2018-07-08T08:09:50.684Z,71.37
2018-07-08T08:12:19.328Z,71.27
2018-07-08T08:14:48.013Z,70.95
2018-07-08T08:17:16.717Z,72.63
2018-07-08T08:19:45.412Z,72.56
2018-07-08T08:22:14.104Z,72.58
2018-07-08T08:24:42.758Z,72.78
2018-07-08T08:27:11.483Z,72.16
2018-07-08T08:29:40.142Z,71.79
2018-07-08T08:32:08.871Z,70.70
2018-07-08T08:34:56.438Z,70.28
2018-07-08T08:37:26.480Z,68.83
2018-07-08T08:39:55.416Z,69.41
2018-07-08T08:42:24.220Z,68.47
2018-07-08T08:44:53.881Z,67.89
2018-07-08T08:47:22.845Z,65.58
2018-07-08T08:49:52.340Z,64.63
2018-07-08T08:52:21.160Z,63.34
2018-07-08T08:54:50.045Z,60.67
2018-07-08T08:57:18.761Z,61.93
2018-07-08T08:59:47.527Z,61.29
2018-07-08T09:02:16.340Z,59.75
2018-07-08T09:04:45.296Z,58.39
2018-07-08T09:07:15.205Z,58.76
2018-07-08T09:09:43.935Z,60.03
2018-07-08T09:12:12.974Z,61.81
2018-07-08T09:14:41.735Z,63.25
2018-07-08T09:17:10.676Z,62.97
2018-07-08T09:19:39.423Z,65.37
2018-07-08T09:22:08.718Z,65.72
2018-07-08T09:24:37.447Z,68.26
2018-07-08T09:27:06.210Z,69.87
2018-07-08T09:29:34.861Z,71.83
2018-07-08T09:32:03.531Z,73.60
2018-07-08T09:34:32.215Z,75.36
2018-07-08T09:37:01.896Z,77.51
2018-07-08T09:39:30.551Z,80.65
2018-07-08T09:41:59.295Z,83.61
2018-07-08T09:44:27.934Z,88.39
2018-07-08T09:46:56.606Z,94.04
2018-07-08T09:49:25.298Z,97.91
2018-07-08T09:51:54.119Z,100.00
2018-07-08T09:54:22.773Z,100.00
2018-07-08T09:56:52.451Z,100.00
2018-07-08T09:59:21.189Z,100.00
2018-07-08T10:01:50.694Z,100.00
2018-07-08T10:04:20.709Z,100.00
2018-07-08T10:06:50.217Z,100.00
2018-07-08T10:09:20.439Z,100.00
2018-07-08T10:11:49.143Z,100.00
2018-07-08T10:14:19.111Z,100.00
2018-07-08T10:16:47.803Z,100.00
2018-07-08T10:19:17.667Z,100.00
2018-07-08T10:21:46.423Z,100.00
2018-07-08T10:24:15.310Z,100.00
2018-07-08T10:26:43.974Z,100.00
2018-07-08T10:29:15.376Z,100.00
2018-07-08T10:31:51.112Z,100.00
2018-07-08T10:34:19.942Z,100.00
2018-07-08T10:36:48.626Z,100.00
2018-07-08T10:39:17.691Z,100.00
2018-07-08T10:41:46.454Z,100.00
2018-07-08T10:44:15.384Z,100.00
2018-07-08T10:46:44.188Z,100.00
2018-07-08T10:49:12.919Z,100.00
2018-07-08T10:51:41.618Z,100.00
2018-07-08T10:54:10.281Z,100.00
2018-07-08T10:56:39.865Z,100.00
2018-07-08T10:59:08.628Z,100.00
2018-07-08T11:01:37.311Z,100.00
2018-07-08T11:04:06.023Z,100.00
2018-07-08T11:06:34.714Z,100.00
2018-07-08T11:09:03.647Z,100.00
2018-07-08T11:11:32.648Z,100.00
2018-07-08T11:14:01.330Z,100.00
2018-07-08T11:16:31.528Z,100.00
2018-07-08T11:19:00.164Z,100.00
2018-07-08T11:21:28.880Z,100.00
2018-07-08T11:23:57.817Z,100.00
2018-07-08T11:26:26.504Z,100.00
2018-07-08T11:28:55.195Z,100.00
2018-07-08T11:31:23.868Z,100.00
2018-07-08T11:33:52.560Z,100.00
2018-07-08T11:36:21.242Z,100.00
2018-07-08T11:38:50.297Z,100.00
2018-07-08T11:41:19.096Z,100.00
2018-07-08T11:43:47.885Z,100.00
2018-07-08T11:46:16.530Z,100.00
2018-07-08T11:48:45.194Z,100.00
2018-07-08T11:51:13.943Z,100.00
2018-07-08T11:53:42.622Z,100.00
2018-07-08T11:56:11.376Z,100.00
2018-07-08T11:58:40.141Z,100.00
2018-07-08T12:01:08.903Z,100.00
2018-07-08T12:03:37.583Z,100.00
2018-07-08T12:06:06.381Z,100.00
2018-07-08T12:08:35.122Z,100.00
2018-07-08T12:11:03.885Z,100.00
2018-07-08T12:13:32.592Z,100.00
2018-07-08T12:16:01.374Z,100.00
2018-07-08T12:18:30.396Z,100.00
2018-07-08T12:20:59.132Z,100.00
2018-07-08T12:23:28.121Z,100.00
2018-07-08T12:25:56.819Z,100.00
2018-07-08T12:28:25.626Z,100.00
2018-07-08T12:30:54.665Z,100.00
2018-07-08T12:33:23.772Z,100.00
2018-07-08T12:35:52.568Z,100.00
2018-07-08T12:38:21.275Z,100.00
2018-07-08T12:40:49.908Z,100.00
2018-07-08T12:43:18.605Z,100.00
2018-07-08T12:45:47.348Z,100.00
2018-07-08T12:48:16.392Z,100.00
2018-07-08T12:50:45.045Z,100.00
2018-07-08T12:53:13.887Z,100.00
2018-07-08T12:55:43.372Z,100.00
2018-07-08T12:58:12.081Z,100.00
2018-07-08T13:00:40.718Z,100.00
2018-07-08T13:03:09.452Z,100.00
2018-07-08T13:05:38.251Z,100.00
2018-07-08T13:08:06.922Z,100.00
2018-07-08T13:10:35.623Z,100.00
2018-07-08T13:13:04.312Z,100.00
2018-07-08T13:15:32.979Z,100.00
2018-07-08T13:18:01.683Z,100.00
2018-07-08T13:20:30.440Z,100.00
2018-07-08T13:22:59.156Z,100.00
2018-07-08T13:25:28.147Z,100.00
2018-07-08T13:27:56.833Z,100.00
2018-07-08T13:30:25.859Z,100.00
2018-07-08T13:32:55.438Z,100.00
2018-07-08T13:35:25.032Z,100.00
2018-07-08T13:37:54.036Z,100.00
2018-07-08T13:40:22.727Z,100.00
2018-07-08T13:42:51.383Z,100.00
2018-07-08T13:45:21.028Z,100.00
2018-07-08T13:47:49.799Z,100.00
2018-07-08T13:50:18.447Z,100.00
2018-07-08T13:52:47.212Z,100.00
2018-07-08T13:55:15.935Z,100.00
2018-07-08T13:57:44.667Z,100.00
2018-07-08T14:00:13.563Z,100.00
2018-07-08T14:02:42.299Z,100.00
2018-07-08T14:05:11.134Z,100.00
2018-07-08T14:07:39.819Z,100.00
2018-07-08T14:10:08.565Z,100.00
2018-07-08T14:12:37.262Z,100.00
2018-07-08T14:15:05.967Z,100.00
2018-07-08T14:17:34.879Z,100.00
2018-07-08T14:20:03.566Z,100.00
2018-07-08T14:22:32.239Z,100.00
2018-07-08T14:25:01.191Z,100.00
2018-07-08T14:27:29.891Z,100.00
2018-07-08T14:29:58.818Z,100.00
2018-07-08T14:32:27.495Z,100.00
2018-07-08T14:34:56.243Z,100.00
2018-07-08T14:37:24.877Z,100.00
2018-07-08T14:39:53.667Z,100.00
2018-07-08T14:42:22.395Z,100.00
2018-07-08T14:44:51.091Z,100.00
2018-07-08T14:47:19.771Z,100.00
2018-07-08T14:49:48.543Z,100.00
2018-07-08T14:52:17.480Z,100.00
2018-07-08T14:54:46.156Z,100.00
2018-07-08T14:57:14.850Z,100.00
2018-07-08T14:59:43.658Z,100.00
2018-07-08T15:02:12.282Z,100.00
2018-07-08T15:04:41.003Z,100.00
2018-07-08T15:07:09.804Z,100.00
2018-07-08T15:09:38.491Z,100.00
2018-07-08T15:12:07.154Z,100.00
2018-07-08T15:14:35.899Z,100.00
2018-07-08T15:17:04.613Z,100.00
2018-07-08T15:19:34.008Z,100.00
2018-07-08T15:22:02.716Z,100.00
2018-07-08T15:24:31.443Z,100.00
2018-07-08T15:27:00.184Z,100.00
2018-07-08T15:29:28.853Z,100.00
2018-07-08T15:31:57.687Z,100.00
2018-07-08T15:34:26.592Z,100.00
2018-07-08T15:36:55.275Z,100.00
2018-07-08T15:39:25.383Z,100.00
2018-07-08T15:41:54.178Z,100.00
2018-07-08T15:44:23.341Z,100.00
2018-07-08T15:46:52.018Z,100.00
2018-07-08T15:49:20.848Z,100.00
2018-07-08T15:51:49.549Z,100.00
2018-07-08T15:54:18.298Z,100.00
2018-07-08T15:56:47.005Z,100.00
2018-07-08T15:59:15.642Z,100.00
2018-07-08T16:01:44.383Z,100.00
2018-07-08T16:04:13.097Z,100.00
2018-07-08T16:06:41.857Z,100.00
2018-07-08T16:09:11.291Z,100.00
2018-07-08T16:11:40.081Z,100.00
2018-07-08T16:14:08.746Z,100.00
2018-07-08T16:16:37.519Z,100.00
2018-07-08T16:19:06.411Z,100.00
2018-07-08T16:21:36.148Z,100.00
2018-07-08T16:24:05.335Z,100.00
2018-07-08T16:26:34.280Z,100.00
2018-07-08T16:29:03.013Z,100.00
2018-07-08T16:31:32.092Z,100.00
2018-07-08T16:34:01.144Z,100.00
2018-07-08T16:36:30.043Z,100.00
2018-07-08T16:38:58.772Z,100.00
2018-07-08T16:41:27.834Z,100.00
2018-07-08T16:43:56.603Z,100.00
2018-07-08T16:46:25.255Z,100.00
2018-07-08T16:48:54.283Z,100.00
2018-07-08T16:51:23.265Z,100.00
2018-07-08T16:53:52.164Z,100.00
2018-07-08T16:56:21.068Z,100.00
2018-07-08T16:58:49.893Z,100.00
2018-07-08T17:01:18.591Z,100.00
2018-07-08T17:03:47.600Z,100.00
2018-07-08T17:06:16.449Z,100.00
2018-07-08T17:08:45.931Z,100.00
2018-07-08T17:11:14.680Z,100.00
2018-07-08T17:13:43.788Z,100.00
2018-07-08T17:16:12.564Z,100.00
2018-07-08T17:18:41.693Z,100.00
2018-07-08T17:21:10.908Z,100.00
2018-07-08T17:23:39.792Z,100.00
2018-07-08T17:26:08.535Z,100.00
2018-07-08T17:28:37.272Z,100.00
2018-07-08T17:31:06.067Z,100.00
2018-07-08T17:33:34.938Z,100.00
2018-07-08T17:36:04.035Z,100.00
2018-07-08T17:38:32.710Z,100.00
2018-07-08T17:41:01.580Z,100.00
2018-07-08T17:43:30.266Z,100.00
2018-07-08T17:45:59.019Z,100.00
2018-07-08T17:48:27.717Z,100.00
2018-07-08T17:50:57.386Z,100.00
2018-07-08T17:53:26.131Z,100.00
2018-07-08T17:55:54.870Z,100.00
2018-07-08T17:58:23.947Z,100.00
2018-07-08T18:00:52.634Z,100.00
2018-07-08T18:03:21.532Z,100.00
2018-07-08T18:05:50.536Z,100.00
2018-07-08T18:08:19.306Z,100.00
2018-07-08T18:10:47.970Z,100.00
2018-07-08T18:13:17.143Z,100.00
2018-07-08T18:15:46.787Z,100.00
2018-07-08T18:18:15.489Z,100.00
2018-07-08T18:20:44.253Z,100.00
2018-07-08T18:23:12.932Z,100.00
2018-07-08T18:25:41.650Z,100.00
2018-07-08T18:28:10.411Z,100.00
2018-07-08T18:30:39.198Z,100.00
2018-07-08T18:33:07.862Z,100.00
2018-07-08T18:35:36.628Z,100.00
2018-07-08T18:38:05.526Z,100.00
2018-07-08T18:40:34.272Z,100.00
2018-07-08T18:43:03.084Z,100.00
2018-07-08T18:45:31.757Z,100.00
2018-07-08T18:48:01.183Z,100.00
2018-07-08T18:50:30.243Z,100.00
2018-07-08T18:52:59.036Z,100.00
2018-07-08T18:55:28.142Z,100.00
2018-07-08T18:57:56.798Z,100.00
2018-07-08T19:00:25.695Z,100.00
2018-07-08T19:02:54.404Z,100.00
2018-07-08T19:05:23.955Z,100.00
2018-07-08T19:07:52.727Z,100.00
2018-07-08T19:10:22.002Z,100.00
2018-07-08T19:12:50.824Z,100.00
2018-07-08T19:15:19.570Z,100.00
2018-07-08T19:17:48.353Z,100.00
2018-07-08T19:20:17.051Z,100.00
2018-07-08T19:22:46.400Z,100.00
2018-07-08T19:25:15.071Z,100.00
2018-07-08T19:27:43.744Z,100.00
2018-07-08T19:30:12.587Z,100.00
2018-07-08T19:32:41.295Z,100.00
2018-07-08T19:35:09.982Z,100.00
2018-07-08T19:37:38.676Z,100.00
2018-07-08T19:40:07.389Z,100.00
2018-07-08T19:42:36.071Z,100.00
2018-07-08T19:45:04.947Z,100.00
2018-07-08T19:47:33.882Z,100.00
2018-07-08T19:50:02.901Z,100.00
2018-07-08T19:52:31.610Z,100.00
2018-07-08T19:55:00.384Z,100.00
2018-07-08T19:57:29.151Z,100.00
2018-07-08T19:59:57.939Z,100.00
2018-07-08T20:02:26.931Z,100.00
2018-07-08T20:04:55.676Z,100.00
2018-07-08T20:07:24.535Z,100.00
2018-07-08T20:09:53.303Z,100.00
2018-07-08T20:12:21.966Z,100.00
2018-07-08T20:14:50.662Z,100.00
2018-07-08T20:17:19.717Z,100.00
2018-07-08T20:19:48.581Z,100.00
2018-07-08T20:22:17.262Z,100.00
2018-07-08T20:24:45.962Z,100.00
2018-07-08T20:27:14.683Z,100.00
2018-07-08T20:29:43.405Z,100.00
2018-07-08T20:32:12.193Z,100.00
2018-07-08T20:34:40.854Z,100.00
2018-07-08T20:37:10.049Z,100.00
2018-07-08T20:39:38.762Z,100.00
2018-07-08T20:42:08.335Z,100.00
2018-07-08T20:44:37.275Z,100.00
2018-07-08T20:47:06.029Z,100.00
2018-07-08T20:49:35.123Z,100.00
2018-07-08T20:52:03.742Z,100.00
2018-07-08T20:54:33.163Z,100.00
2018-07-08T20:57:01.990Z,100.00
2018-07-08T20:59:30.747Z,100.00
2018-07-08T21:01:59.671Z,100.00
2018-07-08T21:04:28.404Z,100.00
2018-07-08T21:06:57.356Z,100.00
2018-07-08T21:09:26.019Z,100.00
2018-07-08T21:11:54.684Z,100.00
2018-07-08T21:14:23.442Z,100.00
2018-07-08T21:16:52.126Z,100.00
2018-07-08T21:19:20.992Z,100.00
2018-07-08T21:21:49.635Z,100.00
2018-07-08T21:24:18.291Z,100.00
2018-07-08T21:26:46.967Z,100.00
2018-07-08T21:29:15.719Z,100.00
2018-07-08T21:31:44.483Z,100.00
2018-07-08T21:34:13.183Z,100.00
2018-07-08T21:36:42.295Z,100.00
2018-07-08T21:39:11.716Z,100.00
2018-07-08T21:41:41.307Z,100.00
2018-07-08T21:44:10.101Z,100.00
2018-07-08T21:46:38.902Z,100.00
2018-07-08T21:49:08.333Z,100.00
2018-07-08T21:51:37.003Z,100.00
2018-07-08T21:54:05.795Z,100.00
2018-07-08T21:56:34.560Z,100.00
2018-07-08T21:59:03.251Z,100.00
2018-07-08T22:01:37.465Z,100.00
2018-07-08T22:04:06.251Z,100.00
2018-07-08T22:06:34.909Z,100.00
2018-07-08T22:09:03.927Z,100.00
2018-07-08T22:11:32.627Z,100.00
2018-07-08T22:14:01.389Z,100.00
2018-07-08T22:16:30.132Z,100.00
2018-07-08T22:18:58.872Z,100.00
2018-07-08T22:21:27.661Z,100.00
2018-07-08T22:23:56.508Z,100.00
2018-07-08T22:26:25.251Z,100.00
2018-07-08T22:28:53.936Z,100.00
2018-07-08T22:31:22.596Z,100.00
2018-07-08T22:33:51.311Z,100.00
2018-07-08T22:36:20.018Z,100.00
2018-07-08T22:38:48.697Z,100.00
2018-07-08T22:41:17.422Z,100.00
2018-07-08T22:43:46.189Z,100.00
2018-07-08T22:46:14.942Z,100.00
2018-07-08T22:48:44.447Z,100.00
2018-07-08T22:51:13.091Z,100.00
2018-07-08T22:53:41.934Z,100.00
2018-07-08T22:56:10.634Z,100.00
2018-07-08T22:58:39.344Z,100.00
2018-07-08T23:01:19.183Z,100.00
2018-07-08T23:03:50.675Z,100.00
2018-07-08T23:06:20.404Z,100.00
2018-07-08T23:08:49.818Z,100.00
2018-07-08T23:11:18.960Z,100.00
2018-07-08T23:13:48.748Z,100.00
2018-07-08T23:16:17.610Z,100.00
2018-07-08T23:18:46.298Z,100.00
2018-07-08T23:21:14.999Z,100.00
2018-07-08T23:23:43.670Z,100.00
2018-07-08T23:26:12.356Z,100.00
2018-07-08T23:28:41.036Z,100.00
2018-07-08T23:31:10.242Z,100.00
2018-07-08T23:33:38.987Z,100.00
2018-07-08T23:36:08.222Z,100.00
2018-07-08T23:38:37.011Z,100.00
2018-07-08T23:41:06.818Z,100.00
2018-07-08T23:43:35.500Z,100.00
2018-07-08T23:46:04.617Z,100.00
2018-07-08T23:48:33.740Z,100.00
2018-07-08T23:51:02.423Z,100.00
2018-07-08T23:53:31.219Z,100.00
2018-07-08T23:55:59.854Z,100.00
2018-07-08T23:58:28.530Z,100.00
